sensor_id;sensor_type;location;lat;lon;timestamp;P1;durP1;ratioP1;P2;durP2;ratioP2
485;SDS011;229;48.734;9.340;2024-01-15T00:02:00;57.58;;;30.20;;
485;SDS011;229;48.734;9.340;2024-01-15T00:04:28;52.08;;;26.25;;
485;SDS011;229;48.734;9.340;2024-01-15T00:06:55;58.25;;;28.70;;
485;SDS011;229;48.734;9.340;2024-01-15T00:09:22;53.78;;;26.60;;
485;SDS011;229;48.734;9.340;2024-01-15T00:11:51;66.95;;;31.92;;
485;SDS011;229;48.734;9.340;2024-01-15T00:14:18;82.10;;;37.83;;
485;SDS011;229;48.734;9.340;2024-01-15T00:16:45;74.65;;;37.00;;
485;SDS011;229;48.734;9.340;2024-01-15T00:19:14;78.88;;;36.47;;
485;SDS011;229;48.734;9.340;2024-01-15T00:21:41;69.70;;;34.05;;
485;SDS011;229;48.734;9.340;2024-01-15T00:24:08;76.88;;;35.63;;
485;SDS011;229;48.734;9.340;2024-01-15T00:26:36;65.88;;;35.55;;
485;SDS011;229;48.734;9.340;2024-01-15T00:29:04;76.60;;;33.78;;
485;SDS011;229;48.734;9.340;2024-01-15T00:31:33;70.05;;;35.50;;
485;SDS011;229;48.734;9.340;2024-01-15T00:34:00;71.53;;;34.22;;
485;SDS011;229;48.734;9.340;2024-01-15T00:36:27;69.05;;;34.10;;
485;SDS011;229;48.734;9.340;2024-01-15T00:38:55;67.72;;;34.60;;
485;SDS011;229;48.734;9.340;2024-01-15T00:41:22;64.40;;;33.17;;
485;SDS011;229;48.734;9.340;2024-01-15T00:43:49;71.63;;;36.28;;
485;SDS011;229;48.734;9.340;2024-01-15T00:46:18;71.30;;;33.70;;
485;SDS011;229;48.734;9.340;2024-01-15T00:48:45;73.75;;;32.00;;
485;SDS011;229;48.734;9.340;2024-01-15T00:51:12;62.78;;;31.83;;
485;SDS011;229;48.734;9.340;2024-01-15T00:53:40;72.60;;;32.85;;
485;SDS011;229;48.734;9.340;2024-01-15T00:56:07;60.85;;;31.60;;
485;SDS011;229;48.734;9.340;2024-01-15T00:58:34;62.15;;;31.20;;
485;SDS011;229;48.734;9.340;2024-01-15T01:01:01;65.25;;;31.90;;
485;SDS011;229;48.734;9.340;2024-01-15T01:03:30;66.28;;;33.03;;
485;SDS011;229;48.734;9.340;2024-01-15T01:05:57;55.40;;;27.33;;
485;SDS011;229;48.734;9.340;2024-01-15T01:08:24;56.47;;;28.48;;
485;SDS011;229;48.734;9.340;2024-01-15T01:10:51;61.00;;;30.58;;
485;SDS011;229;48.734;9.340;2024-01-15T01:13:18;55.45;;;28.98;;
485;SDS011;229;48.734;9.340;2024-01-15T01:15:46;46.95;;;25.02;;
485;SDS011;229;48.734;9.340;2024-01-15T01:18:13;48.75;;;25.50;;
485;SDS011;229;48.734;9.340;2024-01-15T01:20:41;46.20;;;23.40;;
485;SDS011;229;48.734;9.340;2024-01-15T01:23:09;45.03;;;22.75;;
485;SDS011;229;48.734;9.340;2024-01-15T01:25:36;39.20;;;21.63;;
485;SDS011;229;48.734;9.340;2024-01-15T01:28:03;49.40;;;23.77;;
485;SDS011;229;48.734;9.340;2024-01-15T01:30:30;47.55;;;22.75;;
485;SDS011;229;48.734;9.340;2024-01-15T01:32:57;42.38;;;22.13;;
485;SDS011;229;48.734;9.340;2024-01-15T01:35:25;47.90;;;22.35;;
485;SDS011;229;48.734;9.340;2024-01-15T01:37:53;43.58;;;21.73;;
485;SDS011;229;48.734;9.340;2024-01-15T01:40:20;38.53;;;20.67;;
485;SDS011;229;48.734;9.340;2024-01-15T01:42:48;43.40;;;20.13;;
485;SDS011;229;48.734;9.340;2024-01-15T01:45:15;41.63;;;20.15;;
485;SDS011;229;48.734;9.340;2024-01-15T01:47:42;41.03;;;20.05;;
485;SDS011;229;48.734;9.340;2024-01-15T01:50:09;42.15;;;20.80;;
485;SDS011;229;48.734;9.340;2024-01-15T01:52:37;38.17;;;19.88;;
485;SDS011;229;48.734;9.340;2024-01-15T01:55:06;32.83;;;16.58;;
485;SDS011;229;48.734;9.340;2024-01-15T01:57:33;32.05;;;16.45;;
485;SDS011;229;48.734;9.340;2024-01-15T02:00:02;30.65;;;16.55;;
485;SDS011;229;48.734;9.340;2024-01-15T02:02:30;28.00;;;15.10;;
485;SDS011;229;48.734;9.340;2024-01-15T02:04:57;33.55;;;17.42;;
485;SDS011;229;48.734;9.340;2024-01-15T02:07:25;30.48;;;16.38;;
485;SDS011;229;48.734;9.340;2024-01-15T02:09:52;30.85;;;15.45;;
485;SDS011;229;48.734;9.340;2024-01-15T02:12:21;26.83;;;14.30;;
485;SDS011;229;48.734;9.340;2024-01-15T02:14:48;29.60;;;15.80;;
485;SDS011;229;48.734;9.340;2024-01-15T02:17:16;29.95;;;14.82;;
485;SDS011;229;48.734;9.340;2024-01-15T02:19:43;25.60;;;14.48;;
485;SDS011;229;48.734;9.340;2024-01-15T02:22:10;28.63;;;14.63;;
485;SDS011;229;48.734;9.340;2024-01-15T02:24:38;25.02;;;13.73;;
485;SDS011;229;48.734;9.340;2024-01-15T02:27:06;27.02;;;14.02;;
485;SDS011;229;48.734;9.340;2024-01-15T02:29:33;28.35;;;14.45;;
485;SDS011;229;48.734;9.340;2024-01-15T02:32:04;27.58;;;15.85;;
485;SDS011;229;48.734;9.340;2024-01-15T02:34:31;27.00;;;15.15;;
485;SDS011;229;48.734;9.340;2024-01-15T02:36:58;26.25;;;13.32;;
485;SDS011;229;48.734;9.340;2024-01-15T02:39:25;28.63;;;14.15;;
485;SDS011;229;48.734;9.340;2024-01-15T02:41:55;24.95;;;13.70;;
485;SDS011;229;48.734;9.340;2024-01-15T02:44:22;29.50;;;14.02;;
485;SDS011;229;48.734;9.340;2024-01-15T02:46:50;27.17;;;14.35;;
485;SDS011;229;48.734;9.340;2024-01-15T02:49:17;24.13;;;13.32;;
485;SDS011;229;48.734;9.340;2024-01-15T02:51:44;25.75;;;14.30;;
485;SDS011;229;48.734;9.340;2024-01-15T02:54:12;30.50;;;14.95;;
485;SDS011;229;48.734;9.340;2024-01-15T02:56:39;26.30;;;14.23;;
485;SDS011;229;48.734;9.340;2024-01-15T02:59:07;25.52;;;13.60;;
485;SDS011;229;48.734;9.340;2024-01-15T03:01:34;25.27;;;14.35;;
485;SDS011;229;48.734;9.340;2024-01-15T03:04:02;24.05;;;12.45;;
485;SDS011;229;48.734;9.340;2024-01-15T03:06:29;28.10;;;14.68;;
485;SDS011;229;48.734;9.340;2024-01-15T03:08:56;27.40;;;13.73;;
485;SDS011;229;48.734;9.340;2024-01-15T03:11:23;22.35;;;12.88;;
485;SDS011;229;48.734;9.340;2024-01-15T03:13:50;25.10;;;14.48;;
485;SDS011;229;48.734;9.340;2024-01-15T03:16:19;26.63;;;12.88;;
485;SDS011;229;48.734;9.340;2024-01-15T03:18:46;27.10;;;13.68;;
485;SDS011;229;48.734;9.340;2024-01-15T03:21:13;24.63;;;12.82;;
485;SDS011;229;48.734;9.340;2024-01-15T03:23:40;27.15;;;12.82;;
485;SDS011;229;48.734;9.340;2024-01-15T03:26:08;24.02;;;12.75;;
485;SDS011;229;48.734;9.340;2024-01-15T03:28:35;28.75;;;13.65;;
485;SDS011;229;48.734;9.340;2024-01-15T03:31:02;23.55;;;12.73;;
485;SDS011;229;48.734;9.340;2024-01-15T03:33:31;26.95;;;14.60;;
485;SDS011;229;48.734;9.340;2024-01-15T03:35:58;28.05;;;14.73;;
485;SDS011;229;48.734;9.340;2024-01-15T03:38:27;24.92;;;12.93;;
485;SDS011;229;48.734;9.340;2024-01-15T03:40:54;24.83;;;13.13;;
485;SDS011;229;48.734;9.340;2024-01-15T03:43:21;26.15;;;13.65;;
485;SDS011;229;48.734;9.340;2024-01-15T03:45:48;25.67;;;13.82;;
485;SDS011;229;48.734;9.340;2024-01-15T03:48:16;26.50;;;13.45;;
485;SDS011;229;48.734;9.340;2024-01-15T03:50:44;26.42;;;12.80;;
485;SDS011;229;48.734;9.340;2024-01-15T03:53:11;27.15;;;14.18;;
485;SDS011;229;48.734;9.340;2024-01-15T03:55:38;29.67;;;14.85;;
485;SDS011;229;48.734;9.340;2024-01-15T03:58:06;29.35;;;14.15;;
485;SDS011;229;48.734;9.340;2024-01-15T04:00:33;25.05;;;12.85;;
485;SDS011;229;48.734;9.340;2024-01-15T04:03:00;28.80;;;13.88;;
485;SDS011;229;48.734;9.340;2024-01-15T04:05:27;21.83;;;13.15;;
485;SDS011;229;48.734;9.340;2024-01-15T04:07:56;32.47;;;14.05;;
485;SDS011;229;48.734;9.340;2024-01-15T04:10:23;22.55;;;12.35;;
485;SDS011;229;48.734;9.340;2024-01-15T04:12:50;27.92;;;15.05;;
485;SDS011;229;48.734;9.340;2024-01-15T04:15:17;26.88;;;12.70;;
485;SDS011;229;48.734;9.340;2024-01-15T04:17:44;26.20;;;13.07;;
485;SDS011;229;48.734;9.340;2024-01-15T04:20:12;26.42;;;14.48;;
485;SDS011;229;48.734;9.340;2024-01-15T04:22:39;26.35;;;13.27;;
485;SDS011;229;48.734;9.340;2024-01-15T04:25:08;27.02;;;14.00;;
485;SDS011;229;48.734;9.340;2024-01-15T04:27:35;24.55;;;12.95;;
485;SDS011;229;48.734;9.340;2024-01-15T04:30:02;26.55;;;13.48;;
485;SDS011;229;48.734;9.340;2024-01-15T04:32:30;23.60;;;12.55;;
485;SDS011;229;48.734;9.340;2024-01-15T04:34:57;26.38;;;14.07;;
485;SDS011;229;48.734;9.340;2024-01-15T04:37:24;27.73;;;14.65;;
485;SDS011;229;48.734;9.340;2024-01-15T04:39:51;26.80;;;14.13;;
485;SDS011;229;48.734;9.340;2024-01-15T04:42:21;26.27;;;13.30;;
485;SDS011;229;48.734;9.340;2024-01-15T04:44:48;30.17;;;14.73;;
485;SDS011;229;48.734;9.340;2024-01-15T04:47:16;26.10;;;14.20;;
485;SDS011;229;48.734;9.340;2024-01-15T04:49:43;25.00;;;12.80;;
485;SDS011;229;48.734;9.340;2024-01-15T04:52:10;23.63;;;13.10;;
485;SDS011;229;48.734;9.340;2024-01-15T04:54:37;27.20;;;14.32;;
485;SDS011;229;48.734;9.340;2024-01-15T04:57:05;24.63;;;13.48;;
485;SDS011;229;48.734;9.340;2024-01-15T04:59:33;29.42;;;14.13;;
485;SDS011;229;48.734;9.340;2024-01-15T05:02:00;29.00;;;12.93;;
485;SDS011;229;48.734;9.340;2024-01-15T05:04:28;26.35;;;12.55;;
485;SDS011;229;48.734;9.340;2024-01-15T05:06:55;25.23;;;13.45;;
485;SDS011;229;48.734;9.340;2024-01-15T05:09:22;30.05;;;14.25;;
485;SDS011;229;48.734;9.340;2024-01-15T05:11:49;21.73;;;11.45;;
485;SDS011;229;48.734;9.340;2024-01-15T05:14:16;25.20;;;13.25;;
485;SDS011;229;48.734;9.340;2024-01-15T05:16:47;20.73;;;11.77;;
485;SDS011;229;48.734;9.340;2024-01-15T05:19:15;29.20;;;12.88;;
485;SDS011;229;48.734;9.340;2024-01-15T05:21:42;25.92;;;13.07;;
485;SDS011;229;48.734;9.340;2024-01-15T05:24:10;25.13;;;12.85;;
485;SDS011;229;48.734;9.340;2024-01-15T05:26:37;28.10;;;13.88;;
485;SDS011;229;48.734;9.340;2024-01-15T05:29:04;26.80;;;13.43;;
485;SDS011;229;48.734;9.340;2024-01-15T05:31:31;29.80;;;14.48;;
485;SDS011;229;48.734;9.340;2024-01-15T05:34:00;28.58;;;13.60;;
485;SDS011;229;48.734;9.340;2024-01-15T05:36:27;29.15;;;14.35;;
485;SDS011;229;48.734;9.340;2024-01-15T05:38:54;24.90;;;13.50;;
485;SDS011;229;48.734;9.340;2024-01-15T05:41:21;28.45;;;14.82;;
485;SDS011;229;48.734;9.340;2024-01-15T05:43:48;25.80;;;13.68;;
485;SDS011;229;48.734;9.340;2024-01-15T05:46:15;30.23;;;14.82;;
485;SDS011;229;48.734;9.340;2024-01-15T05:48:43;24.88;;;12.90;;
485;SDS011;229;48.734;9.340;2024-01-15T05:51:12;30.33;;;14.38;;
485;SDS011;229;48.734;9.340;2024-01-15T05:53:39;27.52;;;14.38;;
485;SDS011;229;48.734;9.340;2024-01-15T05:56:07;26.42;;;14.45;;
485;SDS011;229;48.734;9.340;2024-01-15T05:58:35;26.08;;;13.80;;
485;SDS011;229;48.734;9.340;2024-01-15T06:01:02;26.60;;;13.70;;
485;SDS011;229;48.734;9.340;2024-01-15T06:03:30;30.52;;;15.60;;
485;SDS011;229;48.734;9.340;2024-01-15T06:05:57;30.40;;;14.25;;
485;SDS011;229;48.734;9.340;2024-01-15T06:08:25;26.52;;;13.90;;
485;SDS011;229;48.734;9.340;2024-01-15T06:10:53;29.33;;;13.93;;
485;SDS011;229;48.734;9.340;2024-01-15T06:13:20;24.38;;;12.93;;
485;SDS011;229;48.734;9.340;2024-01-15T06:15:47;24.85;;;13.90;;
485;SDS011;229;48.734;9.340;2024-01-15T06:18:14;28.05;;;14.60;;
485;SDS011;229;48.734;9.340;2024-01-15T06:20:42;30.55;;;14.57;;
485;SDS011;229;48.734;9.340;2024-01-15T06:23:09;25.17;;;13.77;;
485;SDS011;229;48.734;9.340;2024-01-15T06:25:38;26.95;;;13.95;;
485;SDS011;229;48.734;9.340;2024-01-15T06:28:05;23.95;;;12.20;;
485;SDS011;229;48.734;9.340;2024-01-15T06:30:32;27.45;;;13.52;;
485;SDS011;229;48.734;9.340;2024-01-15T06:33:00;30.38;;;13.55;;
485;SDS011;229;48.734;9.340;2024-01-15T06:35:27;27.33;;;15.15;;
485;SDS011;229;48.734;9.340;2024-01-15T06:37:54;23.10;;;12.40;;
485;SDS011;229;48.734;9.340;2024-01-15T06:40:22;24.70;;;12.35;;
485;SDS011;229;48.734;9.340;2024-01-15T06:42:50;22.67;;;12.40;;
485;SDS011;229;48.734;9.340;2024-01-15T06:45:17;27.48;;;14.02;;
485;SDS011;229;48.734;9.340;2024-01-15T06:47:44;28.88;;;13.82;;
485;SDS011;229;48.734;9.340;2024-01-15T06:50:12;24.95;;;12.70;;
485;SDS011;229;48.734;9.340;2024-01-15T06:52:39;24.55;;;13.88;;
485;SDS011;229;48.734;9.340;2024-01-15T06:55:06;20.52;;;12.43;;
485;SDS011;229;48.734;9.340;2024-01-15T06:57:34;24.42;;;13.23;;
485;SDS011;229;48.734;9.340;2024-01-15T07:00:02;26.63;;;14.65;;
485;SDS011;229;48.734;9.340;2024-01-15T07:02:32;24.60;;;13.27;;
485;SDS011;229;48.734;9.340;2024-01-15T07:05:00;25.23;;;13.85;;
485;SDS011;229;48.734;9.340;2024-01-15T07:07:29;20.88;;;13.10;;
485;SDS011;229;48.734;9.340;2024-01-15T07:09:56;21.20;;;12.85;;
485;SDS011;229;48.734;9.340;2024-01-15T07:12:24;29.58;;;14.95;;
485;SDS011;229;48.734;9.340;2024-01-15T07:14:51;21.70;;;11.98;;
485;SDS011;229;48.734;9.340;2024-01-15T07:17:19;26.73;;;14.38;;
485;SDS011;229;48.734;9.340;2024-01-15T07:19:46;23.20;;;13.25;;
485;SDS011;229;48.734;9.340;2024-01-15T07:22:14;18.90;;;11.55;;
485;SDS011;229;48.734;9.340;2024-01-15T07:24:42;20.92;;;11.93;;
485;SDS011;229;48.734;9.340;2024-01-15T07:27:09;22.92;;;12.65;;
485;SDS011;229;48.734;9.340;2024-01-15T07:29:36;20.25;;;11.60;;
485;SDS011;229;48.734;9.340;2024-01-15T07:32:04;23.60;;;11.95;;
485;SDS011;229;48.734;9.340;2024-01-15T07:34:34;21.50;;;11.45;;
485;SDS011;229;48.734;9.340;2024-01-15T07:37:01;17.25;;;10.60;;
485;SDS011;229;48.734;9.340;2024-01-15T07:39:29;18.55;;;10.90;;
485;SDS011;229;48.734;9.340;2024-01-15T07:41:56;22.05;;;10.52;;
485;SDS011;229;48.734;9.340;2024-01-15T07:44:23;21.40;;;10.57;;
485;SDS011;229;48.734;9.340;2024-01-15T07:46:50;22.02;;;11.63;;
485;SDS011;229;48.734;9.340;2024-01-15T07:49:18;20.60;;;11.13;;
485;SDS011;229;48.734;9.340;2024-01-15T07:51:46;19.63;;;10.57;;
485;SDS011;229;48.734;9.340;2024-01-15T07:54:13;20.75;;;11.43;;
485;SDS011;229;48.734;9.340;2024-01-15T07:56:53;15.07;;;10.10;;
485;SDS011;229;48.734;9.340;2024-01-15T07:59:20;18.08;;;10.77;;
485;SDS011;229;48.734;9.340;2024-01-15T08:01:47;21.90;;;12.48;;
485;SDS011;229;48.734;9.340;2024-01-15T08:04:14;17.10;;;10.43;;
485;SDS011;229;48.734;9.340;2024-01-15T08:06:42;20.63;;;10.73;;
485;SDS011;229;48.734;9.340;2024-01-15T08:09:10;18.17;;;10.55;;
485;SDS011;229;48.734;9.340;2024-01-15T08:11:39;19.75;;;11.05;;
485;SDS011;229;48.734;9.340;2024-01-15T08:14:06;16.63;;;9.75;;
485;SDS011;229;48.734;9.340;2024-01-15T08:16:34;21.13;;;11.43;;
485;SDS011;229;48.734;9.340;2024-01-15T08:19:01;16.80;;;10.80;;
485;SDS011;229;48.734;9.340;2024-01-15T08:21:29;19.45;;;9.48;;
485;SDS011;229;48.734;9.340;2024-01-15T08:23:57;19.77;;;10.05;;
485;SDS011;229;48.734;9.340;2024-01-15T08:26:25;21.70;;;11.40;;
485;SDS011;229;48.734;9.340;2024-01-15T08:28:52;14.57;;;9.65;;
485;SDS011;229;48.734;9.340;2024-01-15T08:31:20;17.00;;;9.77;;
485;SDS011;229;48.734;9.340;2024-01-15T08:33:47;15.60;;;9.60;;
485;SDS011;229;48.734;9.340;2024-01-15T08:36:14;17.42;;;8.55;;
485;SDS011;229;48.734;9.340;2024-01-15T08:38:41;16.70;;;9.10;;
485;SDS011;229;48.734;9.340;2024-01-15T08:41:08;16.73;;;9.57;;
485;SDS011;229;48.734;9.340;2024-01-15T08:43:37;18.58;;;9.68;;
485;SDS011;229;48.734;9.340;2024-01-15T08:46:04;18.20;;;9.88;;
485;SDS011;229;48.734;9.340;2024-01-15T08:48:32;18.73;;;9.70;;
485;SDS011;229;48.734;9.340;2024-01-15T08:50:59;17.02;;;9.90;;
485;SDS011;229;48.734;9.340;2024-01-15T08:53:26;15.93;;;9.30;;
485;SDS011;229;48.734;9.340;2024-01-15T08:55:53;17.27;;;9.52;;
485;SDS011;229;48.734;9.340;2024-01-15T08:58:20;17.17;;;9.10;;
485;SDS011;229;48.734;9.340;2024-01-15T09:00:49;18.40;;;9.50;;
485;SDS011;229;48.734;9.340;2024-01-15T09:03:16;21.52;;;9.20;;
485;SDS011;229;48.734;9.340;2024-01-15T09:05:44;19.15;;;10.07;;
485;SDS011;229;48.734;9.340;2024-01-15T09:08:11;18.77;;;9.25;;
485;SDS011;229;48.734;9.340;2024-01-15T09:10:38;14.27;;;8.50;;
485;SDS011;229;48.734;9.340;2024-01-15T09:13:06;16.55;;;9.05;;
485;SDS011;229;48.734;9.340;2024-01-15T09:15:33;15.75;;;8.82;;
485;SDS011;229;48.734;9.340;2024-01-15T09:18:01;19.35;;;8.80;;
485;SDS011;229;48.734;9.340;2024-01-15T09:20:30;18.10;;;8.55;;
485;SDS011;229;48.734;9.340;2024-01-15T09:22:57;17.58;;;8.10;;
485;SDS011;229;48.734;9.340;2024-01-15T09:25:24;11.98;;;7.82;;
485;SDS011;229;48.734;9.340;2024-01-15T09:27:52;16.20;;;8.02;;
485;SDS011;229;48.734;9.340;2024-01-15T09:30:19;13.30;;;7.95;;
485;SDS011;229;48.734;9.340;2024-01-15T09:32:46;21.20;;;8.50;;
485;SDS011;229;48.734;9.340;2024-01-15T09:35:15;15.75;;;7.80;;
485;SDS011;229;48.734;9.340;2024-01-15T09:37:42;18.55;;;8.70;;
485;SDS011;229;48.734;9.340;2024-01-15T09:40:11;20.23;;;8.77;;
485;SDS011;229;48.734;9.340;2024-01-15T09:42:39;15.25;;;8.15;;
485;SDS011;229;48.734;9.340;2024-01-15T09:45:07;17.35;;;9.82;;
485;SDS011;229;48.734;9.340;2024-01-15T09:47:35;12.82;;;7.07;;
485;SDS011;229;48.734;9.340;2024-01-15T09:50:02;10.85;;;6.75;;
485;SDS011;229;48.734;9.340;2024-01-15T09:52:31;21.92;;;7.40;;
485;SDS011;229;48.734;9.340;2024-01-15T09:54:58;13.43;;;7.70;;
485;SDS011;229;48.734;9.340;2024-01-15T09:57:28;11.52;;;6.78;;
485;SDS011;229;48.734;9.340;2024-01-15T09:59:55;19.33;;;7.40;;
485;SDS011;229;48.734;9.340;2024-01-15T10:02:24;14.93;;;7.75;;
485;SDS011;229;48.734;9.340;2024-01-15T10:04:51;12.88;;;6.95;;
485;SDS011;229;48.734;9.340;2024-01-15T10:07:19;21.67;;;7.13;;
485;SDS011;229;48.734;9.340;2024-01-15T10:09:48;15.25;;;6.97;;
485;SDS011;229;48.734;9.340;2024-01-15T10:12:16;11.63;;;6.68;;
485;SDS011;229;48.734;9.340;2024-01-15T10:14:43;15.05;;;7.22;;
485;SDS011;229;48.734;9.340;2024-01-15T10:17:13;11.93;;;6.35;;
485;SDS011;229;48.734;9.340;2024-01-15T10:19:41;13.80;;;7.30;;
485;SDS011;229;48.734;9.340;2024-01-15T10:22:08;12.95;;;7.25;;
485;SDS011;229;48.734;9.340;2024-01-15T10:24:35;14.15;;;6.85;;
485;SDS011;229;48.734;9.340;2024-01-15T10:27:08;17.73;;;7.50;;
485;SDS011;229;48.734;9.340;2024-01-15T10:29:36;15.35;;;8.85;;
485;SDS011;229;48.734;9.340;2024-01-15T10:32:05;16.15;;;7.50;;
485;SDS011;229;48.734;9.340;2024-01-15T10:34:33;14.95;;;6.82;;
485;SDS011;229;48.734;9.340;2024-01-15T10:37:00;12.63;;;6.82;;
485;SDS011;229;48.734;9.340;2024-01-15T10:39:28;16.77;;;9.13;;
485;SDS011;229;48.734;9.340;2024-01-15T10:41:56;19.23;;;7.40;;
485;SDS011;229;48.734;9.340;2024-01-15T10:44:25;9.40;;;6.55;;
485;SDS011;229;48.734;9.340;2024-01-15T10:46:52;18.83;;;7.40;;
485;SDS011;229;48.734;9.340;2024-01-15T10:49:19;14.55;;;7.13;;
485;SDS011;229;48.734;9.340;2024-01-15T10:51:49;32.55;;;7.80;;
485;SDS011;229;48.734;9.340;2024-01-15T10:54:17;10.93;;;6.00;;
485;SDS011;229;48.734;9.340;2024-01-15T10:56:46;14.48;;;6.70;;
485;SDS011;229;48.734;9.340;2024-01-15T10:59:14;20.13;;;7.30;;
485;SDS011;229;48.734;9.340;2024-01-15T11:01:44;18.90;;;6.50;;
485;SDS011;229;48.734;9.340;2024-01-15T11:04:11;18.05;;;8.10;;
485;SDS011;229;48.734;9.340;2024-01-15T11:06:42;14.27;;;8.23;;
485;SDS011;229;48.734;9.340;2024-01-15T11:09:09;18.67;;;7.70;;
485;SDS011;229;48.734;9.340;2024-01-15T11:11:40;11.35;;;7.80;;
485;SDS011;229;48.734;9.340;2024-01-15T11:14:07;11.30;;;6.50;;
485;SDS011;229;48.734;9.340;2024-01-15T11:19:20;16.23;;;6.90;;
485;SDS011;229;48.734;9.340;2024-01-15T11:21:48;10.93;;;7.00;;
485;SDS011;229;48.734;9.340;2024-01-15T11:26:57;13.80;;;6.70;;
485;SDS011;229;48.734;9.340;2024-01-15T11:29:30;15.63;;;7.60;;
485;SDS011;229;48.734;9.340;2024-01-15T11:32:07;9.63;;;6.60;;
485;SDS011;229;48.734;9.340;2024-01-15T11:34:54;14.80;;;7.00;;
485;SDS011;229;48.734;9.340;2024-01-15T11:37:23;10.10;;;6.47;;
485;SDS011;229;48.734;9.340;2024-01-15T11:39:51;9.40;;;5.80;;
485;SDS011;229;48.734;9.340;2024-01-15T11:42:19;11.98;;;6.05;;
485;SDS011;229;48.734;9.340;2024-01-15T11:44:46;11.02;;;6.55;;
485;SDS011;229;48.734;9.340;2024-01-15T11:47:13;12.10;;;6.22;;
485;SDS011;229;48.734;9.340;2024-01-15T11:49:56;13.95;;;7.25;;
485;SDS011;229;48.734;9.340;2024-01-15T11:52:25;12.32;;;6.65;;
485;SDS011;229;48.734;9.340;2024-01-15T11:54:55;13.30;;;6.40;;
485;SDS011;229;48.734;9.340;2024-01-15T11:57:25;9.85;;;6.72;;
485;SDS011;229;48.734;9.340;2024-01-15T11:59:56;18.23;;;6.82;;
485;SDS011;229;48.734;9.340;2024-01-15T12:02:23;13.05;;;6.60;;
485;SDS011;229;48.734;9.340;2024-01-15T12:04:50;11.55;;;6.22;;
485;SDS011;229;48.734;9.340;2024-01-15T12:07:19;8.98;;;6.07;;
485;SDS011;229;48.734;9.340;2024-01-15T12:09:46;12.82;;;6.40;;
485;SDS011;229;48.734;9.340;2024-01-15T12:12:13;10.77;;;6.50;;
485;SDS011;229;48.734;9.340;2024-01-15T12:14:46;11.98;;;7.35;;
485;SDS011;229;48.734;9.340;2024-01-15T12:17:13;14.88;;;6.90;;
485;SDS011;229;48.734;9.340;2024-01-15T12:19:41;17.95;;;6.80;;
485;SDS011;229;48.734;9.340;2024-01-15T12:22:08;13.18;;;6.78;;
485;SDS011;229;48.734;9.340;2024-01-15T12:24:36;9.45;;;6.55;;
485;SDS011;229;48.734;9.340;2024-01-15T12:27:04;11.35;;;6.03;;
485;SDS011;229;48.734;9.340;2024-01-15T12:29:31;11.02;;;7.05;;
485;SDS011;229;48.734;9.340;2024-01-15T12:31:58;10.05;;;7.35;;
485;SDS011;229;48.734;9.340;2024-01-15T12:34:28;13.55;;;7.18;;
485;SDS011;229;48.734;9.340;2024-01-15T12:36:56;9.50;;;6.05;;
485;SDS011;229;48.734;9.340;2024-01-15T12:39:24;11.35;;;7.03;;
485;SDS011;229;48.734;9.340;2024-01-15T12:41:52;10.85;;;6.57;;
485;SDS011;229;48.734;9.340;2024-01-15T12:44:19;11.00;;;7.45;;
485;SDS011;229;48.734;9.340;2024-01-15T12:46:47;13.85;;;7.55;;
485;SDS011;229;48.734;9.340;2024-01-15T12:49:14;14.75;;;7.25;;
485;SDS011;229;48.734;9.340;2024-01-15T12:51:42;10.95;;;7.15;;
485;SDS011;229;48.734;9.340;2024-01-15T12:54:09;18.02;;;9.27;;
485;SDS011;229;48.734;9.340;2024-01-15T12:56:37;13.80;;;7.80;;
485;SDS011;229;48.734;9.340;2024-01-15T12:59:05;13.55;;;8.23;;
485;SDS011;229;48.734;9.340;2024-01-15T13:01:33;12.25;;;7.72;;
485;SDS011;229;48.734;9.340;2024-01-15T13:04:01;14.32;;;8.43;;
485;SDS011;229;48.734;9.340;2024-01-15T13:06:28;15.50;;;8.45;;
485;SDS011;229;48.734;9.340;2024-01-15T13:08:55;23.77;;;9.00;;
485;SDS011;229;48.734;9.340;2024-01-15T13:11:22;13.52;;;8.90;;
485;SDS011;229;48.734;9.340;2024-01-15T13:13:49;21.25;;;9.77;;
485;SDS011;229;48.734;9.340;2024-01-15T13:16:18;17.02;;;8.90;;
485;SDS011;229;48.734;9.340;2024-01-15T13:18:46;22.00;;;9.05;;
485;SDS011;229;48.734;9.340;2024-01-15T13:21:14;14.65;;;8.52;;
485;SDS011;229;48.734;9.340;2024-01-15T13:23:42;16.65;;;8.93;;
485;SDS011;229;48.734;9.340;2024-01-15T13:26:09;19.80;;;9.82;;
485;SDS011;229;48.734;9.340;2024-01-15T13:28:37;18.13;;;10.93;;
485;SDS011;229;48.734;9.340;2024-01-15T13:31:04;19.27;;;10.55;;
485;SDS011;229;48.734;9.340;2024-01-15T13:33:33;16.70;;;9.45;;
485;SDS011;229;48.734;9.340;2024-01-15T13:36:00;18.23;;;9.10;;
485;SDS011;229;48.734;9.340;2024-01-15T13:38:28;18.90;;;9.93;;
485;SDS011;229;48.734;9.340;2024-01-15T13:41:01;14.13;;;8.35;;
485;SDS011;229;48.734;9.340;2024-01-15T13:43:28;13.90;;;8.38;;
485;SDS011;229;48.734;9.340;2024-01-15T13:45:55;24.00;;;9.68;;
485;SDS011;229;48.734;9.340;2024-01-15T13:48:22;14.25;;;7.93;;
485;SDS011;229;48.734;9.340;2024-01-15T13:50:51;12.35;;;7.28;;
485;SDS011;229;48.734;9.340;2024-01-15T13:53:18;13.50;;;8.00;;
485;SDS011;229;48.734;9.340;2024-01-15T13:55:45;12.07;;;7.88;;
485;SDS011;229;48.734;9.340;2024-01-15T13:58:12;13.90;;;8.40;;
485;SDS011;229;48.734;9.340;2024-01-15T14:00:40;11.90;;;7.40;;
485;SDS011;229;48.734;9.340;2024-01-15T14:03:07;15.63;;;7.78;;
485;SDS011;229;48.734;9.340;2024-01-15T14:05:34;16.70;;;8.02;;
485;SDS011;229;48.734;9.340;2024-01-15T14:08:03;11.75;;;6.60;;
485;SDS011;229;48.734;9.340;2024-01-15T14:10:30;15.68;;;7.78;;
485;SDS011;229;48.734;9.340;2024-01-15T14:12:57;13.95;;;8.02;;
485;SDS011;229;48.734;9.340;2024-01-15T14:15:24;13.02;;;7.55;;
485;SDS011;229;48.734;9.340;2024-01-15T14:17:52;16.30;;;8.10;;
485;SDS011;229;48.734;9.340;2024-01-15T14:20:19;16.35;;;8.30;;
485;SDS011;229;48.734;9.340;2024-01-15T14:22:47;17.20;;;8.70;;
485;SDS011;229;48.734;9.340;2024-01-15T14:25:16;16.98;;;8.85;;
485;SDS011;229;48.734;9.340;2024-01-15T14:27:43;21.98;;;9.60;;
485;SDS011;229;48.734;9.340;2024-01-15T14:30:11;20.67;;;8.82;;
485;SDS011;229;48.734;9.340;2024-01-15T14:32:40;16.50;;;8.77;;
485;SDS011;229;48.734;9.340;2024-01-15T14:35:08;16.73;;;8.90;;
485;SDS011;229;48.734;9.340;2024-01-15T14:37:36;16.25;;;9.40;;
485;SDS011;229;48.734;9.340;2024-01-15T14:40:03;15.85;;;9.18;;
485;SDS011;229;48.734;9.340;2024-01-15T14:42:34;13.50;;;8.27;;
485;SDS011;229;48.734;9.340;2024-01-15T14:45:01;12.18;;;7.80;;
485;SDS011;229;48.734;9.340;2024-01-15T14:47:30;14.60;;;8.07;;
485;SDS011;229;48.734;9.340;2024-01-15T14:49:58;16.73;;;9.35;;
485;SDS011;229;48.734;9.340;2024-01-15T14:52:25;14.75;;;6.95;;
485;SDS011;229;48.734;9.340;2024-01-15T14:54:52;10.77;;;6.00;;
485;SDS011;229;48.734;9.340;2024-01-15T14:57:19;10.75;;;6.15;;
485;SDS011;229;48.734;9.340;2024-01-15T14:59:48;8.63;;;5.93;;
485;SDS011;229;48.734;9.340;2024-01-15T15:02:15;9.30;;;5.97;;
485;SDS011;229;48.734;9.340;2024-01-15T15:04:43;8.48;;;6.57;;
485;SDS011;229;48.734;9.340;2024-01-15T15:07:10;11.65;;;6.97;;
485;SDS011;229;48.734;9.340;2024-01-15T15:09:38;11.85;;;7.90;;
485;SDS011;229;48.734;9.340;2024-01-15T15:12:06;11.00;;;6.80;;
485;SDS011;229;48.734;9.340;2024-01-15T15:14:33;10.38;;;6.70;;
485;SDS011;229;48.734;9.340;2024-01-15T15:17:04;10.93;;;6.70;;
485;SDS011;229;48.734;9.340;2024-01-15T15:19:31;11.43;;;7.53;;
485;SDS011;229;48.734;9.340;2024-01-15T15:22:00;14.93;;;7.90;;
485;SDS011;229;48.734;9.340;2024-01-15T15:24:27;11.10;;;7.53;;
485;SDS011;229;48.734;9.340;2024-01-15T15:26:54;14.00;;;7.90;;
485;SDS011;229;48.734;9.340;2024-01-15T15:29:21;11.18;;;7.85;;
485;SDS011;229;48.734;9.340;2024-01-15T15:31:49;12.10;;;9.15;;